sensor_id;sensor_type;location;lat;lon;timestamp;temperature;humidity
13264;DHT22;6700;51.988;7.646;2023-11-21T00:02:24;7.20;99.90
13264;DHT22;6700;51.988;7.646;2023-11-21T00:04:51;7.20;99.90
13264;DHT22;6700;51.988;7.646;2023-11-21T00:07:18;7.30;99.90
13264;DHT22;6700;51.988;7.646;2023-11-21T00:09:45;7.30;99.90
13264;DHT22;6700;51.988;7.646;2023-11-21T00:12:12;7.40;99.90
13264;DHT22;6700;51.988;7.646;2023-11-21T00:14:40;7.40;99.90
13264;DHT22;6700;51.988;7.646;2023-11-21T00:17:10;7.50;99.90
13264;DHT22;6700;51.988;7.646;2023-11-21T00:19:38;7.50;99.90
13264;DHT22;6700;51.988;7.646;2023-11-21T00:22:04;7.50;99.90
13264;DHT22;6700;51.988;7.646;2023-11-21T00:24:33;7.50;99.90
13264;DHT22;6700;51.988;7.646;2023-11-21T00:27:01;7.60;99.90
13264;DHT22;6700;51.988;7.646;2023-11-21T00:29:28;7.60;99.90
13264;DHT22;6700;51.988;7.646;2023-11-21T00:31:54;7.60;99.90
13264;DHT22;6700;51.988;7.646;2023-11-21T00:34:21;7.60;99.90
13264;DHT22;6700;51.988;7.646;2023-11-21T00:36:48;7.60;99.90
13264;DHT22;6700;51.988;7.646;2023-11-21T00:39:15;7.60;99.90
13264;DHT22;6700;51.988;7.646;2023-11-21T00:41:42;7.70;99.90
13264;DHT22;6700;51.988;7.646;2023-11-21T00:44:11;7.70;99.90
13264;DHT22;6700;51.988;7.646;2023-11-21T00:46:39;7.70;99.90
13264;DHT22;6700;51.988;7.646;2023-11-21T00:49:05;7.80;99.90
13264;DHT22;6700;51.988;7.646;2023-11-21T00:51:32;7.80;99.90
13264;DHT22;6700;51.988;7.646;2023-11-21T00:53:59;7.80;99.90
13264;DHT22;6700;51.988;7.646;2023-11-21T00:56:26;7.80;99.90
13264;DHT22;6700;51.988;7.646;2023-11-21T00:58:53;7.80;99.90
13264;DHT22;6700;51.988;7.646;2023-11-21T01:01:20;7.80;99.90
13264;DHT22;6700;51.988;7.646;2023-11-21T01:03:48;7.80;99.90
13264;DHT22;6700;51.988;7.646;2023-11-21T01:06:15;7.80;99.90
13264;DHT22;6700;51.988;7.646;2023-11-21T01:08:43;7.70;99.90
13264;DHT22;6700;51.988;7.646;2023-11-21T01:11:10;7.70;99.90
13264;DHT22;6700;51.988;7.646;2023-11-21T01:13:39;7.60;99.90
13264;DHT22;6700;51.988;7.646;2023-11-21T01:16:07;7.50;99.90
13264;DHT22;6700;51.988;7.646;2023-11-21T01:18:35;7.50;99.90
13264;DHT22;6700;51.988;7.646;2023-11-21T01:21:01;7.50;99.90
13264;DHT22;6700;51.988;7.646;2023-11-21T01:23:28;7.50;99.90
13264;DHT22;6700;51.988;7.646;2023-11-21T01:25:55;7.50;99.90
13264;DHT22;6700;51.988;7.646;2023-11-21T01:28:22;7.50;99.90
13264;DHT22;6700;51.988;7.646;2023-11-21T01:30:49;7.50;99.90
13264;DHT22;6700;51.988;7.646;2023-11-21T01:33:16;7.50;99.90
13264;DHT22;6700;51.988;7.646;2023-11-21T01:35:43;7.60;99.90
13264;DHT22;6700;51.988;7.646;2023-11-21T01:38:09;7.60;99.90
13264;DHT22;6700;51.988;7.646;2023-11-21T01:40:36;7.60;99.90
13264;DHT22;6700;51.988;7.646;2023-11-21T01:43:03;7.60;99.90
13264;DHT22;6700;51.988;7.646;2023-11-21T01:45:31;7.60;99.90
13264;DHT22;6700;51.988;7.646;2023-11-21T01:48:02;7.70;99.90
13264;DHT22;6700;51.988;7.646;2023-11-21T01:50:32;7.70;99.90
13264;DHT22;6700;51.988;7.646;2023-11-21T01:53:00;7.80;99.90
13264;DHT22;6700;51.988;7.646;2023-11-21T01:55:31;7.70;99.90
13264;DHT22;6700;51.988;7.646;2023-11-21T01:57:58;7.70;99.90
13264;DHT22;6700;51.988;7.646;2023-11-21T02:00:25;7.70;99.90
13264;DHT22;6700;51.988;7.646;2023-11-21T02:02:54;7.80;99.90
13264;DHT22;6700;51.988;7.646;2023-11-21T02:05:21;7.80;99.90
13264;DHT22;6700;51.988;7.646;2023-11-21T02:07:48;7.80;99.90
13264;DHT22;6700;51.988;7.646;2023-11-21T02:10:16;7.80;99.90
13264;DHT22;6700;51.988;7.646;2023-11-21T02:12:44;7.80;99.90
13264;DHT22;6700;51.988;7.646;2023-11-21T02:15:14;7.80;99.90
13264;DHT22;6700;51.988;7.646;2023-11-21T02:17:47;7.80;99.90
13264;DHT22;6700;51.988;7.646;2023-11-21T02:20:21;7.80;99.90
13264;DHT22;6700;51.988;7.646;2023-11-21T02:22:52;7.80;99.90
13264;DHT22;6700;51.988;7.646;2023-11-21T02:25:26;7.90;99.90
13264;DHT22;6700;51.988;7.646;2023-11-21T02:27:57;7.90;99.90
13264;DHT22;6700;51.988;7.646;2023-11-21T02:30:24;7.90;99.90
13264;DHT22;6700;51.988;7.646;2023-11-21T02:32:54;7.90;99.90
13264;DHT22;6700;51.988;7.646;2023-11-21T02:35:21;7.90;99.90
13264;DHT22;6700;51.988;7.646;2023-11-21T02:37:48;7.90;99.90
13264;DHT22;6700;51.988;7.646;2023-11-21T02:40:15;7.90;99.90
13264;DHT22;6700;51.988;7.646;2023-11-21T02:42:45;8.00;99.90
13264;DHT22;6700;51.988;7.646;2023-11-21T02:45:12;8.00;99.90
13264;DHT22;6700;51.988;7.646;2023-11-21T02:47:39;8.00;99.90
13264;DHT22;6700;51.988;7.646;2023-11-21T02:50:07;8.00;99.90
13264;DHT22;6700;51.988;7.646;2023-11-21T02:52:35;8.00;99.90
13264;DHT22;6700;51.988;7.646;2023-11-21T02:55:03;8.00;99.90
13264;DHT22;6700;51.988;7.646;2023-11-21T02:57:29;8.10;99.90
13264;DHT22;6700;51.988;7.646;2023-11-21T02:59:56;8.10;99.90
13264;DHT22;6700;51.988;7.646;2023-11-21T03:02:23;8.10;99.90
13264;DHT22;6700;51.988;7.646;2023-11-21T03:04:50;8.10;99.90
13264;DHT22;6700;51.988;7.646;2023-11-21T03:07:17;8.10;99.90
13264;DHT22;6700;51.988;7.646;2023-11-21T03:09:45;8.10;99.90
13264;DHT22;6700;51.988;7.646;2023-11-21T03:12:12;8.10;99.90
13264;DHT22;6700;51.988;7.646;2023-11-21T03:14:39;8.10;99.90
13264;DHT22;6700;51.988;7.646;2023-11-21T03:17:06;8.20;99.90
13264;DHT22;6700;51.988;7.646;2023-11-21T03:19:33;8.20;99.90
13264;DHT22;6700;51.988;7.646;2023-11-21T03:22:00;8.20;99.90
13264;DHT22;6700;51.988;7.646;2023-11-21T03:24:30;8.20;99.90
13264;DHT22;6700;51.988;7.646;2023-11-21T03:26:59;8.20;99.90
13264;DHT22;6700;51.988;7.646;2023-11-21T03:29:26;8.20;99.90
13264;DHT22;6700;51.988;7.646;2023-11-21T03:31:52;8.20;99.90
13264;DHT22;6700;51.988;7.646;2023-11-21T03:34:23;8.20;99.90
13264;DHT22;6700;51.988;7.646;2023-11-21T03:36:50;8.20;99.90
13264;DHT22;6700;51.988;7.646;2023-11-21T03:39:16;8.30;99.90
13264;DHT22;6700;51.988;7.646;2023-11-21T03:41:43;8.30;99.90
13264;DHT22;6700;51.988;7.646;2023-11-21T03:44:11;8.20;99.90
13264;DHT22;6700;51.988;7.646;2023-11-21T03:46:37;8.30;99.90
13264;DHT22;6700;51.988;7.646;2023-11-21T03:49:04;8.30;99.90
13264;DHT22;6700;51.988;7.646;2023-11-21T03:51:32;8.20;99.90
13264;DHT22;6700;51.988;7.646;2023-11-21T03:53:59;8.30;99.90
13264;DHT22;6700;51.988;7.646;2023-11-21T03:56:26;8.20;99.90
13264;DHT22;6700;51.988;7.646;2023-11-21T03:58:52;8.30;99.90
13264;DHT22;6700;51.988;7.646;2023-11-21T04:01:22;8.20;99.90
13264;DHT22;6700;51.988;7.646;2023-11-21T04:03:50;8.30;99.90
13264;DHT22;6700;51.988;7.646;2023-11-21T04:06:17;8.30;99.90
13264;DHT22;6700;51.988;7.646;2023-11-21T04:08:44;8.30;99.90
13264;DHT22;6700;51.988;7.646;2023-11-21T04:11:11;8.30;99.90
13264;DHT22;6700;51.988;7.646;2023-11-21T04:13:38;8.30;99.90
13264;DHT22;6700;51.988;7.646;2023-11-21T04:16:06;8.30;99.90
13264;DHT22;6700;51.988;7.646;2023-11-21T04:18:34;8.30;99.90
13264;DHT22;6700;51.988;7.646;2023-11-21T04:21:01;8.30;99.90
13264;DHT22;6700;51.988;7.646;2023-11-21T04:23:29;8.30;99.90
13264;DHT22;6700;51.988;7.646;2023-11-21T04:25:56;8.30;99.90
13264;DHT22;6700;51.988;7.646;2023-11-21T04:28:23;8.30;99.90
13264;DHT22;6700;51.988;7.646;2023-11-21T04:30:53;8.40;99.90
13264;DHT22;6700;51.988;7.646;2023-11-21T04:33:20;8.30;99.90
13264;DHT22;6700;51.988;7.646;2023-11-21T04:35:49;8.30;99.90
13264;DHT22;6700;51.988;7.646;2023-11-21T04:38:16;8.30;99.90
13264;DHT22;6700;51.988;7.646;2023-11-21T04:40:42;8.30;99.90
13264;DHT22;6700;51.988;7.646;2023-11-21T04:43:09;8.30;99.90
13264;DHT22;6700;51.988;7.646;2023-11-21T04:45:36;8.30;99.90
13264;DHT22;6700;51.988;7.646;2023-11-21T04:48:03;8.30;99.90
13264;DHT22;6700;51.988;7.646;2023-11-21T04:50:30;8.30;99.90
13264;DHT22;6700;51.988;7.646;2023-11-21T04:52:57;8.30;99.90
13264;DHT22;6700;51.988;7.646;2023-11-21T04:55:24;8.30;99.90
13264;DHT22;6700;51.988;7.646;2023-11-21T04:57:52;8.30;99.90
13264;DHT22;6700;51.988;7.646;2023-11-21T05:00:18;8.30;99.90
13264;DHT22;6700;51.988;7.646;2023-11-21T05:02:45;8.30;99.90
13264;DHT22;6700;51.988;7.646;2023-11-21T05:05:12;8.30;99.90
13264;DHT22;6700;51.988;7.646;2023-11-21T05:07:39;8.30;99.90
13264;DHT22;6700;51.988;7.646;2023-11-21T05:10:06;8.30;99.90
13264;DHT22;6700;51.988;7.646;2023-11-21T05:12:42;8.30;99.90
13264;DHT22;6700;51.988;7.646;2023-11-21T05:15:09;8.20;99.90
13264;DHT22;6700;51.988;7.646;2023-11-21T05:17:39;8.20;99.90
13264;DHT22;6700;51.988;7.646;2023-11-21T05:20:10;8.20;99.90
13264;DHT22;6700;51.988;7.646;2023-11-21T05:22:37;8.20;99.90
13264;DHT22;6700;51.988;7.646;2023-11-21T05:25:05;8.10;99.90
13264;DHT22;6700;51.988;7.646;2023-11-21T05:27:32;8.10;99.90
13264;DHT22;6700;51.988;7.646;2023-11-21T05:30:05;8.10;99.90
13264;DHT22;6700;51.988;7.646;2023-11-21T05:32:33;8.10;99.90
13264;DHT22;6700;51.988;7.646;2023-11-21T05:35:01;8.10;99.90
13264;DHT22;6700;51.988;7.646;2023-11-21T05:37:27;8.10;99.90
13264;DHT22;6700;51.988;7.646;2023-11-21T05:39:55;8.10;99.90
13264;DHT22;6700;51.988;7.646;2023-11-21T05:42:24;8.10;99.90
13264;DHT22;6700;51.988;7.646;2023-11-21T05:44:52;8.10;99.90
13264;DHT22;6700;51.988;7.646;2023-11-21T05:47:19;8.10;99.90
13264;DHT22;6700;51.988;7.646;2023-11-21T05:49:50;8.10;99.90
13264;DHT22;6700;51.988;7.646;2023-11-21T05:52:19;8.10;99.90
13264;DHT22;6700;51.988;7.646;2023-11-21T05:54:47;8.10;99.90
13264;DHT22;6700;51.988;7.646;2023-11-21T05:57:15;8.10;99.90
13264;DHT22;6700;51.988;7.646;2023-11-21T05:59:41;8.10;99.90
13264;DHT22;6700;51.988;7.646;2023-11-21T06:02:08;8.10;99.90
13264;DHT22;6700;51.988;7.646;2023-11-21T06:04:34;8.20;99.90
13264;DHT22;6700;51.988;7.646;2023-11-21T06:07:01;8.20;99.90
13264;DHT22;6700;51.988;7.646;2023-11-21T06:09:28;8.20;99.90
13264;DHT22;6700;51.988;7.646;2023-11-21T06:11:55;8.20;99.90
13264;DHT22;6700;51.988;7.646;2023-11-21T06:14:22;8.20;99.90
13264;DHT22;6700;51.988;7.646;2023-11-21T06:16:49;8.30;99.90
13264;DHT22;6700;51.988;7.646;2023-11-21T06:19:17;8.30;99.90
13264;DHT22;6700;51.988;7.646;2023-11-21T06:21:45;8.30;99.90
13264;DHT22;6700;51.988;7.646;2023-11-21T06:24:13;8.30;99.90
13264;DHT22;6700;51.988;7.646;2023-11-21T06:26:41;8.30;99.90
13264;DHT22;6700;51.988;7.646;2023-11-21T06:29:08;8.20;99.90
13264;DHT22;6700;51.988;7.646;2023-11-21T06:31:34;8.20;99.90
13264;DHT22;6700;51.988;7.646;2023-11-21T06:34:01;8.30;99.90
13264;DHT22;6700;51.988;7.646;2023-11-21T06:36:29;8.20;99.90
13264;DHT22;6700;51.988;7.646;2023-11-21T06:38:56;8.30;99.90
13264;DHT22;6700;51.988;7.646;2023-11-21T06:46:17;8.30;99.90
13264;DHT22;6700;51.988;7.646;2023-11-21T07:13:31;8.50;99.90
13264;DHT22;6700;51.988;7.646;2023-11-21T07:15:59;8.50;99.90
13264;DHT22;6700;51.988;7.646;2023-11-21T07:18:26;8.40;99.90
13264;DHT22;6700;51.988;7.646;2023-11-21T07:38:08;8.60;99.90
13264;DHT22;6700;51.988;7.646;2023-11-21T10:11:43;9.30;99.90
13264;DHT22;6700;51.988;7.646;2023-11-21T10:34:19;9.20;99.90
13264;DHT22;6700;51.988;7.646;2023-11-21T10:36:47;9.10;99.90
13264;DHT22;6700;51.988;7.646;2023-11-21T10:39:18;9.10;99.90
